Time;durP1;ratioP1;P1;durP2;ratioP2;P2;SDS_P1;SDS_P2;PMS_P1;PMS_P2;Temp;Humidity;BMP_temperature;BMP_pressure;BME280_temperature;BME280_humidity;BME280_pressure;Samples;Min_cycle;Max_cycle;Signal;HPM_P1;HPM_P2
2023/03/11 00:01:03;;;;;;;24.33;15.60;;;;;;;2.41;100.00;98285.91;7402277;19;20026;-68
2023/03/11 00:03:32;;;;;;;26.42;15.75;;;;;;;2.37;100.00;98311.00;7399651;19;20014;-68
2023/03/11 00:06:06;;;;;;;21.67;14.57;;;;;;;2.25;100.00;98329.44;7401326;19;20022;-68
2023/03/11 00:08:34;;;;;;;16.27;12.38;;;;;;;2.03;100.00;98339.53;7401858;19;20015;-69
2023/03/11 00:11:03;;;;;;;18.92;13.02;;;;;;;1.86;100.00;98358.03;7401428;19;20018;-69
2023/03/11 00:13:32;;;;;;;18.75;13.50;;;;;;;1.74;100.00;98366.94;7399659;19;20018;-70
2023/03/11 00:16:02;;;;;;;14.60;10.32;;;;;;;1.56;100.00;98370.84;7401304;19;20035;-70
2023/03/11 00:18:31;;;;;;;16.65;11.07;;;;;;;1.44;100.00;98382.28;7401277;19;20418;-69
2023/03/11 00:21:03;;;;;;;10.00;7.43;;;;;;;1.27;100.00;98400.75;7398518;19;20035;-69
2023/03/11 00:23:33;;;;;;;13.05;9.10;;;;;;;1.17;100.00;98394.91;7399367;19;20074;-69
2023/03/11 00:26:02;;;;;;;7.38;5.75;;;;;;;1.02;100.00;98423.66;7400592;19;20033;-69
2023/03/11 00:28:30;;;;;;;6.50;5.32;;;;;;;0.86;100.00;98443.75;7400999;19;20078;-69
2023/03/11 00:30:59;;;;;;;7.43;5.60;;;;;;;0.74;100.00;98443.09;7400776;19;20039;-69
2023/03/11 00:33:27;;;;;;;5.30;4.50;;;;;;;0.61;100.00;98457.97;7399761;19;20022;-69
2023/03/11 00:35:56;;;;;;;6.28;4.78;;;;;;;0.50;100.00;98465.06;7400907;19;20023;-69
2023/03/11 00:38:27;;;;;;;6.75;5.28;;;;;;;0.38;100.00;98465.25;7400768;19;20018;-69
2023/03/11 00:40:55;;;;;;;5.50;4.35;;;;;;;0.30;100.00;98481.72;7399000;19;20024;-70
2023/03/11 00:43:24;;;;;;;6.53;5.47;;;;;;;0.19;100.00;98472.44;7401676;19;20019;-69
2023/03/11 00:45:52;;;;;;;6.10;5.40;;;;;;;0.16;100.00;98478.50;7402890;19;20482;-69
2023/03/11 00:48:20;;;;;;;7.70;5.82;;;;;;;0.09;100.00;98492.38;7401066;19;20036;-69
2023/03/11 00:50:49;;;;;;;8.38;6.05;;;;;;;0.01;100.00;98499.38;7400622;19;20018;-69
2023/03/11 00:53:17;;;;;;;8.40;6.68;;;;;;;-0.10;100.00;98517.56;7399027;19;20414;-70
2023/03/11 00:55:48;;;;;;;8.65;6.60;;;;;;;-0.18;100.00;98518.56;7399746;19;20494;-69
2023/03/11 00:58:17;;;;;;;9.05;6.78;;;;;;;-0.23;100.00;98537.50;7400540;19;20014;-69
2023/03/11 01:00:45;;;;;;;9.30;6.80;;;;;;;-0.30;100.00;98535.88;7399801;19;20028;-69
2023/03/11 01:03:14;;;;;;;10.23;7.35;;;;;;;-0.31;100.00;98547.09;7399335;19;20022;-69
2023/03/11 01:05:43;;;;;;;11.00;7.93;;;;;;;-0.35;100.00;98549.69;7397495;19;20513;-69
2023/03/11 01:08:11;;;;;;;11.20;7.60;;;;;;;-0.40;100.00;98553.22;7399923;19;20014;-69
2023/03/11 01:10:40;;;;;;;10.25;7.68;;;;;;;-0.41;100.00;98564.38;7399927;19;20419;-68
2023/03/11 01:13:11;;;;;;;10.95;8.60;;;;;;;-0.45;100.00;98579.00;7399310;19;20022;-70
2023/03/11 01:15:40;;;;;;;10.45;7.68;;;;;;;-0.48;100.00;98585.94;7400063;19;20077;-70
2023/03/11 01:18:08;;;;;;;14.15;9.38;;;;;;;-0.53;100.00;98615.16;7399944;19;20032;-69
2023/03/11 01:20:39;;;;;;;14.00;8.70;;;;;;;-0.56;100.00;98610.03;7399670;19;20031;-69
2023/03/11 01:23:08;;;;;;;11.68;9.05;;;;;;;-0.61;100.00;98616.97;7399662;19;20018;-70
2023/03/11 01:25:37;;;;;;;13.07;9.60;;;;;;;-0.64;100.00;98631.59;7398394;19;20018;-69
2023/03/11 01:28:08;;;;;;;13.68;9.93;;;;;;;-0.68;100.00;98635.94;7400961;19;20362;-67
2023/03/11 01:30:41;;;;;;;11.75;8.55;;;;;;;-0.72;100.00;98642.84;7401152;19;20018;-67
2023/03/11 01:33:14;;;;;;;11.57;8.00;;;;;;;-0.74;100.00;98652.28;7400513;19;20026;-69
2023/03/11 01:35:43;;;;;;;12.95;8.55;;;;;;;-0.77;100.00;98649.75;7400354;19;20485;-69
2023/03/11 01:38:13;;;;;;;10.70;7.45;;;;;;;-0.79;100.00;98686.69;7400021;19;20020;-69
2023/03/11 01:40:43;;;;;;;10.50;7.43;;;;;;;-0.80;100.00;98683.25;7396663;19;20014;-68
2023/03/11 01:43:48;;;;;;;10.98;6.50;;;;;;;-0.83;100.00;98684.13;7398716;19;20415;-69
2023/03/11 01:46:22;;;;;;;7.63;5.60;;;;;;;-0.85;100.00;98701.34;7396668;19;20017;-70
2023/03/11 01:48:52;;;;;;;10.32;5.95;;;;;;;-0.86;100.00;98711.63;7399576;19;20437;-69
2023/03/11 01:51:25;;;;;;;7.05;5.25;;;;;;;-0.90;100.00;98681.63;7398564;19;20561;-69
2023/03/11 01:53:56;;;;;;;6.95;5.00;;;;;;;-0.87;100.00;98727.97;7395474;19;20023;-70
2023/03/11 01:56:25;;;;;;;4.75;3.65;;;;;;;-1.00;100.00;98722.03;7398880;19;20418;-71
2023/03/11 01:58:56;;;;;;;4.60;3.30;;;;;;;-0.91;100.00;98746.84;7398616;19;20027;-70
2023/03/11 02:01:27;;;;;;;3.58;3.10;;;;;;;-0.93;100.00;98756.31;7396460;19;20510;-70
2023/03/11 02:03:56;;;;;;;6.03;3.95;;;;;;;-0.94;100.00;98750.31;7397481;19;20031;-70
2023/03/11 02:06:26;;;;;;;4.50;3.20;;;;;;;-0.93;100.00;98777.75;7398754;19;20023;-70
2023/03/11 02:08:56;;;;;;;3.85;2.83;;;;;;;-0.99;100.00;98780.38;7398781;19;20086;-70
2023/03/11 02:11:28;;;;;;;3.33;2.35;;;;;;;-0.97;100.00;98796.66;7398740;19;20028;-70
2023/03/11 02:14:01;;;;;;;4.15;2.38;;;;;;;-0.96;100.00;98794.94;7397728;19;20423;-73
2023/03/11 02:16:32;;;;;;;3.78;2.17;;;;;;;-0.97;100.00;98812.13;7397060;19;20028;-72
2023/03/11 02:19:06;;;;;;;3.67;1.67;;;;;;;-0.98;100.00;98834.41;7397015;19;20490;-73
2023/03/11 02:21:36;;;;;;;4.93;1.83;;;;;;;-0.97;100.00;98832.72;7398483;19;20074;-72
2023/03/11 02:24:14;;;;;;;1.65;1.40;;;;;;;-0.98;100.00;98856.75;7395950;19;20022;-72
2023/03/11 02:26:55;;;;;;;2.90;1.80;;;;;;;-0.99;100.00;98845.59;7397449;19;20091;-72
2023/03/11 02:29:24;;;;;;;3.50;1.60;;;;;;;-0.98;100.00;98855.00;7397347;19;20014;-72
2023/03/11 02:31:53;;;;;;;2.83;2.08;;;;;;;-0.99;100.00;98858.47;7395102;19;20022;-72
2023/03/11 02:34:26;;;;;;;2.53;2.17;;;;;;;-1.03;100.00;98855.91;7395020;19;20074;-72
2023/03/11 02:36:54;;;;;;;3.25;2.35;;;;;;;-0.97;100.00;98881.63;7394942;19;20010;-72
2023/03/11 02:39:32;;;;;;;3.95;2.50;;;;;;;-0.96;100.00;98900.50;7396206;19;20505;-72
2023/03/11 02:42:06;;;;;;;4.15;3.25;;;;;;;-0.95;100.00;98897.91;7395266;19;20002;-72
2023/03/11 02:44:35;;;;;;;;;;;;;;;-0.94;100.00;98921.94;7395348;19;20032;-71
2023/03/11 02:47:03;;;;;;;5.05;3.47;;;;;;;-0.94;100.00;98934.81;7394788;19;19932;-72
2023/03/11 02:49:33;;;;;;;5.35;4.50;;;;;;;-0.94;100.00;98953.69;7396365;19;20019;-72
2023/03/11 02:52:02;;;;;;;6.10;4.53;;;;;;;-0.93;100.00;98952.81;7396209;19;20019;-72
2023/03/11 02:54:30;;;;;;;9.15;5.57;;;;;;;-0.92;100.00;98957.13;7394364;19;20014;-72
2023/03/11 02:56:59;;;;;;;9.07;5.75;;;;;;;-0.90;100.00;98970.81;7396107;19;20363;-73
2023/03/11 02:59:30;;;;;;;9.35;6.32;;;;;;;-0.90;100.00;98985.44;7396171;19;20007;-72
2023/03/11 03:01:58;;;;;;;7.78;5.53;;;;;;;-0.90;100.00;98988.84;7396379;19;20477;-73
2023/03/11 03:04:27;;;;;;;8.82;6.55;;;;;;;-0.86;100.00;99016.31;7393526;19;20035;-73
2023/03/11 03:06:55;;;;;;;9.90;6.53;;;;;;;-0.87;100.00;99017.19;7395501;19;20383;-73
2023/03/11 03:09:24;;;;;;;10.68;6.50;;;;;;;-0.88;100.00;99066.94;7395367;19;20363;-73
2023/03/11 03:11:52;;;;;;;9.02;6.75;;;;;;;-0.85;100.00;99037.75;7395203;19;20431;-74
2023/03/11 03:14:21;;;;;;;9.70;6.85;;;;;;;-0.85;100.00;99046.38;7393752;19;20031;-73
2023/03/11 03:16:53;;;;;;;9.23;6.68;;;;;;;-0.85;100.00;99055.78;7395969;19;20031;-73
2023/03/11 03:19:21;;;;;;;8.52;6.65;;;;;;;-0.89;100.00;99054.94;7396154;19;20022;-73
2023/03/11 03:21:50;;;;;;;8.38;6.30;;;;;;;-0.85;100.00;99076.38;7396832;19;20083;-76
2023/03/11 03:24:18;;;;;;;9.07;6.75;;;;;;;-0.86;100.00;99075.53;7396714;19;20035;-76
2023/03/11 03:26:47;;;;;;;9.60;6.80;;;;;;;-0.86;100.00;99091.00;7396689;19;20010;-76
2023/03/11 03:29:15;;;;;;;8.93;6.97;;;;;;;-0.92;100.00;99096.16;7400628;19;20481;-76
2023/03/11 03:31:44;;;;;;;9.63;6.53;;;;;;;-0.92;100.00;99111.59;7396690;19;20019;-76
2023/03/11 03:34:15;;;;;;;10.02;6.20;;;;;;;-0.86;100.00;99114.16;7393854;19;20130;-75
2023/03/11 03:36:43;;;;;;;8.57;6.43;;;;;;;-0.85;100.00;99133.91;7395601;19;20019;-75
2023/03/11 03:39:12;;;;;;;11.55;8.15;;;;;;;-0.85;100.00;99128.75;7392709;19;20085;-75
2023/03/11 03:41:40;;;;;;;13.10;7.60;;;;;;;-0.89;100.00;99142.47;7393458;19;20078;-75
2023/03/11 03:44:09;;;;;;;9.70;6.65;;;;;;;-0.88;100.00;99141.63;7393381;19;20023;-75
2023/03/11 03:46:38;;;;;;;8.73;6.40;;;;;;;-0.90;100.00;99145.91;7392391;19;20481;-75
2023/03/11 03:49:06;;;;;;;9.35;6.25;;;;;;;-0.92;100.00;99170.81;7394687;19;20010;-74
2023/03/11 03:51:38;;;;;;;9.43;6.70;;;;;;;-0.91;100.00;99169.97;7394682;19;20112;-74
2023/03/11 03:54:07;;;;;;;10.15;7.38;;;;;;;-0.86;100.00;99187.97;7393317;19;20018;-74
2023/03/11 03:56:35;;;;;;;9.43;6.38;;;;;;;-0.86;100.00;99193.13;7394496;19;20446;-74
2023/03/11 03:59:04;;;;;;;8.50;6.13;;;;;;;-0.87;100.00;99197.41;7394464;19;20094;-74
2023/03/11 04:01:32;;;;;;;9.32;6.63;;;;;;;-0.87;100.00;99201.72;7394540;19;20022;-74
2023/03/11 04:04:07;;;;;;;7.90;5.60;;;;;;;-0.87;100.00;99212.03;7392640;19;20081;-75
2023/03/11 04:06:38;;;;;;;6.63;5.03;;;;;;;-0.87;100.00;99223.16;7391812;19;20015;-75
2023/03/11 04:09:07;;;;;;;7.35;5.60;;;;;;;-0.89;100.00;99214.56;7393862;19;20476;-74
2023/03/11 04:11:35;;;;;;;9.80;5.70;;;;;;;-0.89;100.00;99234.31;7393659;19;20014;-74
2023/03/11 04:14:04;;;;;;;8.68;5.93;;;;;;;-0.87;100.00;99251.50;7392506;19;20423;-74
2023/03/11 04:16:32;;;;;;;6.93;4.85;;;;;;;-0.89;100.00;99255.78;7397024;19;20375;-74
2023/03/11 04:19:01;;;;;;;7.38;5.70;;;;;;;-0.85;100.00;99275.53;7400950;19;20027;-74
2023/03/11 04:21:29;;;;;;;7.15;5.03;;;;;;;-0.84;100.00;99260.94;7400686;19;20089;-74
2023/03/11 04:24:01;;;;;;;6.60;4.68;;;;;;;-0.85;100.00;99278.13;7399380;19;20022;-74
2023/03/11 04:26:30;;;;;;;6.68;4.65;;;;;;;-0.83;100.00;99291.84;7398434;19;20078;-74
2023/03/11 04:28:58;;;;;;;7.68;5.32;;;;;;;-0.84;100.00;99294.41;7401030;19;20015;-74
2023/03/11 04:31:26;;;;;;;6.97;5.35;;;;;;;-0.80;100.00;99303.00;7400815;19;20031;-75
2023/03/11 04:33:55;;;;;;;7.63;5.40;;;;;;;-0.84;100.00;99302.97;7399191;19;20032;-75
2023/03/11 04:36:23;;;;;;;6.43;4.90;;;;;;;-0.83;100.00;99301.28;7400626;19;20082;-74
2023/03/11 04:38:52;;;;;;;6.75;4.60;;;;;;;-0.83;100.00;99309.84;7400435;19;20114;-74
2023/03/11 04:41:23;;;;;;;6.10;4.72;;;;;;;-0.89;100.00;99296.13;7399708;19;20358;-75
2023/03/11 04:43:51;;;;;;;5.00;3.95;;;;;;;-0.84;100.00;99315.84;7398854;19;20398;-75
2023/03/11 04:46:20;;;;;;;6.20;4.22;;;;;;;-0.86;100.00;99335.63;7398477;19;20022;-75
2023/03/11 04:48:48;;;;;;;5.60;4.68;;;;;;;-0.85;100.00;99331.31;7400241;19;20022;-75
2023/03/11 04:51:17;;;;;;;6.35;4.22;;;;;;;-0.85;100.00;99363.09;7400641;19;20161;-74
2023/03/11 04:53:45;;;;;;;5.57;4.60;;;;;;;-0.84;100.00;99348.50;7398730;19;20094;-75
2023/03/11 04:56:14;;;;;;;5.93;4.40;;;;;;;-0.85;100.00;99347.66;7400034;19;20014;-76
2023/03/11 04:58:45;;;;;;;6.65;4.97;;;;;;;-0.84;100.00;99361.38;7399793;19;20074;-75
2023/03/11 05:01:13;;;;;;;6.85;4.25;;;;;;;-0.83;100.00;99365.66;7399729;19;20015;-75
2023/03/11 05:03:42;;;;;;;5.88;4.82;;;;;;;-0.83;100.00;99373.41;7398103;19;20498;-75
2023/03/11 05:06:10;;;;;;;6.88;5.10;;;;;;;-0.87;100.00;99371.66;7397797;19;20031;-75
2023/03/11 05:08:39;;;;;;;6.70;4.68;;;;;;;-0.84;100.00;99397.41;7399619;19;20086;-75
2023/03/11 05:11:07;;;;;;;6.53;4.78;;;;;;;-0.86;100.00;99397.41;7399576;19;20037;-75
2023/03/11 05:13:36;;;;;;;8.38;4.43;;;;;;;-0.87;100.00;99413.72;7397902;19;20545;-75
2023/03/11 05:16:08;;;;;;;7.28;5.65;;;;;;;-0.89;100.00;99419.72;7399358;19;20032;-75
2023/03/11 05:18:36;;;;;;;7.78;5.50;;;;;;;-0.85;100.00;99431.75;7399746;19;20083;-75
2023/03/11 05:21:05;;;;;;;8.40;5.50;;;;;;;-0.89;100.00;99435.16;7398760;19;20481;-75
2023/03/11 05:23:33;;;;;;;11.35;6.00;;;;;;;-0.86;100.00;99425.75;7397976;19;20035;-75
2023/03/11 05:26:02;;;;;;;10.45;6.50;;;;;;;-0.98;100.00;99430.84;7397822;19;20011;-75
2023/03/11 05:28:30;;;;;;;9.27;7.07;;;;;;;-0.87;100.00;99457.50;7398867;19;20035;-75
2023/03/11 05:30:59;;;;;;;10.38;7.80;;;;;;;-0.87;100.00;99464.38;7398888;19;20082;-75
2023/03/11 05:33:34;;;;;;;11.10;7.35;;;;;;;-0.86;100.00;99468.66;7397494;19;20018;-75
2023/03/11 05:36:12;;;;;;;13.32;9.07;;;;;;;-0.87;100.00;99475.53;7399187;19;20011;-76
2023/03/11 05:38:41;;;;;;;13.18;8.70;;;;;;;-0.87;100.00;99483.25;7398363;19;20106;-76
2023/03/11 05:41:09;;;;;;;11.65;8.55;;;;;;;-1.00;100.00;99469.47;7397843;19;20027;-75
2023/03/11 05:43:38;;;;;;;13.82;9.50;;;;;;;-0.86;100.00;99487.56;7396978;19;20414;-76
2023/03/11 05:46:06;;;;;;;14.15;9.60;;;;;;;-0.86;100.00;99504.69;7397001;19;20082;-75
2023/03/11 05:48:37;;;;;;;16.60;9.98;;;;;;;-0.89;100.00;99500.41;7398396;19;20023;-75
2023/03/11 05:51:08;;;;;;;15.38;10.85;;;;;;;-0.87;100.00;99509.00;7398426;19;20015;-76
2023/03/11 05:53:37;;;;;;;17.15;11.55;;;;;;;-0.89;100.00;99515.84;7397020;19;20409;-76
2023/03/11 05:56:07;;;;;;;18.27;11.45;;;;;;;-0.88;100.00;99515.00;7397684;19;20032;-76
2023/03/11 05:58:35;;;;;;;16.48;10.43;;;;;;;-0.88;100.00;99511.56;7397896;19;20078;-76
2023/03/11 06:01:09;;;;;;;18.48;11.35;;;;;;;-0.93;100.00;99527.00;7397852;19;20035;-76
2023/03/11 06:03:40;;;;;;;;;;;;;;;-0.89;100.00;99540.75;7397998;19;20022;-77
2023/03/11 06:06:12;;;;;;;19.42;10.85;;;;;;;-0.93;100.00;99532.13;7396439;19;20358;-76
2023/03/11 06:08:44;;;;;;;20.00;12.43;;;;;;;-0.93;100.00;99547.59;7398145;19;20031;-76
2023/03/11 06:11:13;;;;;;;18.13;11.57;;;;;;;-1.00;100.00;99535.53;7399127;19;20037;-76
2023/03/11 06:13:41;;;;;;;20.20;12.95;;;;;;;-0.92;100.00;99564.78;7396371;19;20019;-77
2023/03/11 06:16:11;;;;;;;19.92;12.70;;;;;;;-0.93;100.00;99581.06;7397512;19;20023;-77
2023/03/11 06:18:42;;;;;;;17.92;11.15;;;;;;;-0.90;100.00;99564.78;7397361;19;20019;-77
2023/03/11 06:21:18;;;;;;;20.70;13.57;;;;;;;-0.91;100.00;99550.16;7397800;19;20018;-76
2023/03/11 06:23:47;;;;;;;22.67;13.38;;;;;;;-0.88;100.00;99578.53;7396470;19;20023;-75
2023/03/11 06:26:37;;;;;;;23.23;12.90;;;;;;;-0.88;100.00;99589.69;7395890;19;20074;-76
2023/03/11 06:29:06;;;;;;;21.45;13.55;;;;;;;-0.92;100.00;99589.63;7396648;19;20015;-75
2023/03/11 06:31:35;;;;;;;22.15;14.80;;;;;;;-0.86;100.00;99593.13;7396443;19;20022;-75
2023/03/11 06:34:07;;;;;;;20.88;13.80;;;;;;;-0.86;100.00;99602.56;7395179;19;20042;-76
2023/03/11 06:36:35;;;;;;;21.45;14.25;;;;;;;-0.85;100.00;99606.88;7397102;19;20035;-76
2023/03/11 06:39:05;;;;;;;28.13;15.32;;;;;;;-0.83;100.00;99615.47;7395320;19;20077;-76
2023/03/11 06:41:46;;;;;;;19.05;13.25;;;;;;;-0.80;100.00;99628.34;7395264;19;20003;-75
2023/03/11 06:44:15;;;;;;;17.67;12.93;;;;;;;-0.82;100.00;99627.50;7395275;19;20014;-75
2023/03/11 06:46:43;;;;;;;20.90;13.32;;;;;;;-0.82;100.00;99627.50;7395083;19;20473;-74
2023/03/11 06:49:14;;;;;;;20.10;13.82;;;;;;;-0.93;100.00;99621.41;7396057;19;20074;-74
2023/03/11 06:51:43;;;;;;;22.70;14.85;;;;;;;-0.79;100.00;99653.25;7396684;19;20035;-75
2023/03/11 06:54:12;;;;;;;18.67;12.15;;;;;;;-0.80;100.00;99654.09;7394498;19;20432;-75
2023/03/11 06:56:40;;;;;;;21.38;14.50;;;;;;;-0.83;100.00;99660.09;7395776;19;20027;-75
2023/03/11 06:59:08;;;;;;;21.23;14.23;;;;;;;-0.82;100.00;99677.28;7396036;19;20430;-75
2023/03/11 07:01:37;;;;;;;19.27;13.75;;;;;;;-0.78;100.00;99695.31;7395868;19;20015;-75
2023/03/11 07:04:06;;;;;;;21.77;13.80;;;;;;;-0.90;100.00;99668.63;7394246;19;20078;-75
2023/03/11 07:06:37;;;;;;;24.48;15.45;;;;;;;-0.77;100.00;99697.94;7394474;19;20027;-74
2023/03/11 07:09:05;;;;;;;24.65;15.32;;;;;;;-0.79;100.00;99699.63;7395560;19;20086;-75
2023/03/11 07:11:34;;;;;;;25.55;15.18;;;;;;;-0.75;100.00;99714.25;7395222;19;20028;-75
2023/03/11 07:14:03;;;;;;;19.60;13.73;;;;;;;-0.74;100.00;99722.84;7393940;19;20078;-74
2023/03/11 07:16:32;;;;;;;19.00;13.80;;;;;;;-0.79;100.00;99716.81;7395086;19;20544;-74
2023/03/11 07:19:02;;;;;;;22.48;14.30;;;;;;;-0.78;100.00;99729.69;7395460;19;20052;-75
2023/03/11 07:21:31;;;;;;;18.77;13.18;;;;;;;-0.78;100.00;99737.41;7395310;19;20023;-74
2023/03/11 07:24:04;;;;;;;20.77;14.48;;;;;;;-0.77;100.00;99738.25;7394144;19;20022;-75
2023/03/11 07:26:34;;;;;;;20.88;14.18;;;;;;;-0.73;100.00;99745.19;7394848;19;20044;-73
2023/03/11 07:29:03;;;;;;;22.65;14.57;;;;;;;-0.74;100.00;99746.88;7395589;19;20014;-74
2023/03/11 07:31:32;;;;;;;21.55;14.73;;;;;;;-0.66;100.00;99758.13;7395182;19;20031;-72
2023/03/11 07:34:03;;;;;;;28.38;16.23;;;;;;;-0.71;100.00;99758.94;7393842;19;20076;-72
2023/03/11 07:36:32;;;;;;;21.52;14.45;;;;;;;-0.60;100.00;99762.44;7395482;19;20396;-71
2023/03/11 07:39:06;;;;;;;22.02;15.50;;;;;;;-0.61;100.00;99765.88;7394964;19;20039;-72
2023/03/11 07:41:36;;;;;;;19.23;13.13;;;;;;;-0.60;100.00;99770.19;7394471;19;20015;-73
2023/03/11 07:44:05;;;;;;;20.08;14.15;;;;;;;-0.56;100.00;99796.84;7392992;19;20074;-71
2023/03/11 07:46:34;;;;;;;21.90;14.93;;;;;;;-0.56;100.00;99796.84;7393723;19;20086;-71
2023/03/11 07:49:03;;;;;;;25.40;15.93;;;;;;;-0.59;100.00;99787.38;7394254;19;20101;-71
2023/03/11 07:51:34;;;;;;;26.30;16.52;;;;;;;-0.55;100.00;99796.00;7397777;19;20096;-71
2023/03/11 07:54:06;;;;;;;25.38;16.73;;;;;;;-0.53;100.00;99799.44;7400446;19;20015;-73
2023/03/11 07:56:37;;;;;;;24.92;17.30;;;;;;;-0.49;100.00;99814.09;7401927;19;20027;-73
2023/03/11 07:59:06;;;;;;;25.73;15.93;;;;;;;-0.46;100.00;99814.09;7401586;19;20496;-73
2023/03/11 08:01:39;;;;;;;24.15;15.50;;;;;;;-0.48;100.00;99820.09;7401480;19;20014;-73
2023/03/11 08:04:10;;;;;;;22.77;16.15;;;;;;;-0.46;100.00;99832.13;7399542;19;20017;-72
2023/03/11 08:06:39;;;;;;;24.25;15.18;;;;;;;-0.51;100.00;99833.81;7400411;19;20023;-73
2023/03/11 08:09:11;;;;;;;21.63;15.55;;;;;;;-0.48;100.00;99845.84;7401634;19;20031;-73
2023/03/11 08:11:39;;;;;;;22.38;15.68;;;;;;;-0.47;100.00;99855.31;7401238;19;20343;-74
2023/03/11 08:14:08;;;;;;;23.08;16.17;;;;;;;-0.47;100.00;99850.16;7399775;19;20019;-73
2023/03/11 08:16:37;;;;;;;22.20;16.00;;;;;;;-0.44;100.00;99860.50;7401611;19;20081;-73
2023/03/11 08:19:05;;;;;;;24.42;16.77;;;;;;;-0.41;100.00;99858.81;7401251;19;20018;-73
2023/03/11 08:21:34;;;;;;;21.48;15.20;;;;;;;-0.36;100.00;99869.16;7400806;19;20498;-72
2023/03/11 08:24:03;;;;;;;27.42;16.05;;;;;;;-0.32;100.00;99875.22;7399128;19;20046;-72
2023/03/11 08:26:34;;;;;;;20.20;13.68;;;;;;;-0.34;100.00;99862.31;7400002;19;20025;-73
2023/03/11 08:29:03;;;;;;;24.30;16.35;;;;;;;-0.28;100.00;99887.28;7401224;19;20078;-72
2023/03/11 08:31:33;;;;;;;24.95;15.88;;;;;;;-0.26;100.00;99890.75;7400700;19;20015;-73
2023/03/11 08:34:03;;;;;;;23.95;15.88;;;;;;;-0.36;100.00;99875.19;7398865;19;20015;-72
2023/03/11 08:36:32;;;;;;;22.33;15.63;;;;;;;-0.20;100.00;99899.38;7400334;19;20415;-73
2023/03/11 08:39:01;;;;;;;24.85;16.90;;;;;;;-0.19;100.00;99902.81;7399963;19;20537;-72
2023/03/11 08:41:30;;;;;;;30.13;19.83;;;;;;;-0.19;100.00;99906.28;7399047;19;20006;-71
2023/03/11 08:44:02;;;;;;;27.30;17.52;;;;;;;-0.23;100.00;99904.53;7398511;19;20044;-71
2023/03/11 08:46:32;;;;;;;30.33;19.80;;;;;;;-0.21;100.00;99920.00;7399032;19;20010;-71
2023/03/11 08:49:01;;;;;;;26.48;17.80;;;;;;;-0.24;100.00;99930.28;7400293;19;20022;-71
2023/03/11 08:51:31;;;;;;;26.17;18.13;;;;;;;-0.26;100.00;99924.25;7399839;19;20416;-72
2023/03/11 08:54:00;;;;;;;27.92;17.85;;;;;;;-0.28;100.00;99938.84;7398533;19;20018;-72
2023/03/11 08:56:29;;;;;;;25.42;16.98;;;;;;;-0.30;100.00;99932.78;7399759;19;20031;-72
2023/03/11 08:58:58;;;;;;;22.90;15.23;;;;;;;-0.30;100.00;99941.41;7397175;19;20082;-72
2023/03/11 09:01:29;;;;;;;26.10;16.33;;;;;;;-0.34;100.00;99939.66;7395811;19;20496;-72
2023/03/11 09:03:57;;;;;;;24.50;15.32;;;;;;;-0.42;100.00;99936.97;7397297;19;20481;-71
2023/03/11 09:06:29;;;;;;;34.45;21.70;;;;;;;-0.30;100.00;99956.88;7398640;19;20385;-71
2023/03/11 09:08:57;;;;;;;32.33;19.80;;;;;;;-0.26;100.00;99953.47;7399761;19;20018;-71
2023/03/11 09:11:26;;;;;;;31.58;19.67;;;;;;;-0.24;100.00;99956.94;7397022;19;20015;-72
2023/03/11 09:13:54;;;;;;;27.23;18.85;;;;;;;-0.21;100.00;99954.38;7397297;19;20505;-73
2023/03/11 09:16:24;;;;;;;29.63;19.52;;;;;;;-0.18;100.00;99964.72;7399139;19;20027;-73
2023/03/11 09:18:56;;;;;;;28.83;17.17;;;;;;;-0.17;100.00;99974.16;7398473;19;20081;-72
2023/03/11 09:21:24;;;;;;;25.58;18.13;;;;;;;-0.19;100.00;99978.47;7399105;19;20027;-72
2023/03/11 09:23:53;;;;;;;25.38;17.55;;;;;;;-0.24;100.00;99977.56;7396086;19;20508;-72
2023/03/11 09:26:21;;;;;;;27.02;18.10;;;;;;;-0.23;100.00;99994.75;7396193;19;20078;-72
2023/03/11 09:28:50;;;;;;;36.63;24.65;;;;;;;-0.22;100.00;99993.88;7398797;19;20018;-72
2023/03/11 09:31:19;;;;;;;33.25;22.50;;;;;;;-0.21;100.00;99993.03;7398558;19;20022;-71
2023/03/11 09:33:48;;;;;;;34.38;21.45;;;;;;;-0.20;100.00;99999.94;7396928;19;20480;-72
2023/03/11 09:36:22;;;;;;;35.10;21.85;;;;;;;-0.17;100.00;99999.94;7398719;19;20036;-73
2023/03/11 09:38:50;;;;;;;27.55;17.95;;;;;;;-0.18;100.00;100010.25;7396738;19;20074;-71
2023/03/11 09:41:30;;;;;;;26.33;17.70;;;;;;;-0.15;100.00;100012.00;7398237;19;20082;-71
2023/03/11 09:44:16;;;;;;;24.17;18.10;;;;;;;-0.14;100.00;100018.88;7397049;19;20047;-71
2023/03/11 09:47:09;;;;;;;31.63;18.65;;;;;;;-0.15;100.00;100004.25;7397932;19;20022;-71
2023/03/11 09:49:52;;;;;;;27.70;17.60;;;;;;;-0.22;100.00;100022.25;7396411;19;20031;-72
2023/03/11 09:52:31;;;;;;;27.52;19.65;;;;;;;-0.24;100.00;100034.28;7398281;19;20022;-72
2023/03/11 09:55:05;;;;;;;27.10;18.70;;;;;;;-0.23;100.00;100035.13;7397522;19;20501;-72
2023/03/11 09:57:36;;;;;;;29.95;19.63;;;;;;;-0.20;100.00;100027.44;7397322;19;20074;-72
2023/03/11 10:00:08;;;;;;;26.30;18.55;;;;;;;-0.20;100.00;100043.75;7397539;19;20011;-73
2023/03/11 10:02:38;;;;;;;29.70;19.63;;;;;;;-0.17;100.00;100040.34;7397608;19;20022;-73
2023/03/11 10:05:15;;;;;;;27.45;19.65;;;;;;;-0.15;100.00;100045.53;7397580;19;20023;-73
2023/03/11 10:07:53;;;;;;;27.02;18.05;;;;;;;-0.13;100.00;100062.75;7395954;19;20014;-74
2023/03/11 10:10:23;;;;;;;30.33;20.00;;;;;;;-0.07;100.00;100061.97;7396347;19;20415;-73
2023/03/11 10:12:59;;;;;;;25.00;17.48;;;;;;;-0.05;100.00;100084.34;7396386;19;20018;-73
2023/03/11 10:15:47;;;;;;;25.98;18.02;;;;;;;-0.04;100.00;100074.88;7394016;19;20083;-73
2023/03/11 10:18:42;;;;;;;27.98;19.42;;;;;;;-0.03;99.99;100061.13;7396773;19;20489;-72
2023/03/11 10:21:20;;;;;;;28.85;20.88;;;;;;;-0.01;100.00;100069.75;7397392;19;20023;-71
2023/03/11 10:24:03;;;;;;;27.67;19.25;;;;;;;0.02;100.00;100093.00;7395204;19;20074;-71
2023/03/11 10:26:37;;;;;;;33.80;21.38;;;;;;;0.04;100.00;100078.41;7396431;19;20079;-71
2023/03/11 10:29:15;;;;;;;31.30;20.20;;;;;;;0.07;100.00;100073.28;7396946;19;20078;-71
2023/03/11 10:31:49;;;;;;;27.50;19.42;;;;;;;0.14;99.04;100072.50;7396408;19;20528;-71
2023/03/11 10:34:23;;;;;;;25.83;16.53;;;;;;;0.20;97.86;100083.72;7394869;19;20392;-71
2023/03/11 10:37:00;;;;;;;22.65;15.82;;;;;;;0.21;96.97;100099.19;7396765;19;20022;-71
2023/03/11 10:39:33;;;;;;;20.58;14.95;;;;;;;0.16;95.29;100116.34;7394472;19;20018;-72
2023/03/11 10:42:04;;;;;;;22.00;16.75;;;;;;;0.10;96.07;100101.69;7394764;19;20519;-70
2023/03/11 10:44:36;;;;;;;22.70;17.25;;;;;;;0.09;97.67;100110.28;7394354;19;20023;-72
2023/03/11 10:47:06;;;;;;;24.00;16.85;;;;;;;0.08;98.35;100111.13;7396160;19;20077;-76
2023/03/11 10:49:35;;;;;;;26.17;16.50;;;;;;;0.12;96.68;100117.19;7394457;19;20086;-71
2023/03/11 10:52:05;;;;;;;25.40;17.40;;;;;;;0.08;95.71;100113.69;7396251;19;20015;-71
2023/03/11 10:54:40;;;;;;;20.05;15.70;;;;;;;0.09;95.17;100124.88;7394635;19;20087;-70
2023/03/11 10:57:24;;;;;;;20.67;15.30;;;;;;;0.11;96.73;100120.59;7396378;19;20039;-71
2023/03/11 10:59:54;;;;;;;19.75;13.60;;;;;;;0.13;96.96;100126.66;7394720;19;20019;-72
2023/03/11 11:02:28;;;;;;;17.70;13.20;;;;;;;0.12;96.01;100115.44;7395868;19;20019;-71
2023/03/11 11:05:09;;;;;;;18.92;14.07;;;;;;;0.18;97.34;100126.69;7395665;19;20015;-71
2023/03/11 11:07:40;;;;;;;16.85;12.30;;;;;;;0.22;96.36;100131.91;7394342;19;20086;-71
2023/03/11 11:10:19;;;;;;;15.77;11.48;;;;;;;0.24;95.39;100137.06;7394158;19;20090;-70
2023/03/11 11:12:57;;;;;;;16.13;11.88;;;;;;;0.24;94.35;100129.34;7394912;19;20028;-70
2023/03/11 11:15:29;;;;;;;16.30;11.52;;;;;;;0.23;94.11;100143.06;7395007;19;20018;-70
2023/03/11 11:18:00;;;;;;;16.80;11.07;;;;;;;0.23;94.45;100143.06;7394865;19;20018;-68
2023/03/11 11:20:30;;;;;;;14.93;12.10;;;;;;;0.27;93.87;100144.84;7393808;19;20094;-66
2023/03/11 11:23:00;;;;;;;14.18;11.13;;;;;;;0.31;94.61;100125.97;7394627;19;20410;-66
2023/03/11 11:25:35;;;;;;;12.73;10.85;;;;;;;0.32;93.20;100133.72;7399053;19;20086;-70
2023/03/11 11:28:06;;;;;;;14.95;11.40;;;;;;;0.36;94.33;100139.78;7408184;19;20090;-69
2023/03/11 11:30:35;;;;;;;15.07;9.77;;;;;;;0.39;91.74;100149.28;7408803;19;20018;-68
2023/03/11 11:33:24;;;;;;;15.93;11.43;;;;;;;0.40;90.50;100148.44;7408396;19;20089;-69